createdAt,value
2017-11-15T00:00:23.634Z,7.2
2017-11-15T00:05:05.290Z,7.2
2017-11-15T00:15:07.980Z,7.2
2017-11-15T00:20:10.202Z,7.2
2017-11-15T00:25:10.698Z,7.3
2017-11-15T00:30:05.261Z,7.3
2017-11-15T00:35:05.773Z,7.2
2017-11-15T00:40:37.807Z,7.2
2017-11-15T00:45:03.357Z,7.2
2017-11-15T00:50:03.039Z,7.2
2017-11-15T00:55:07.550Z,7.2
2017-11-15T01:00:03.158Z,7.3
2017-11-15T01:05:07.720Z,7.3
2017-11-15T01:10:07.913Z,7.2
2017-11-15T01:20:07.584Z,7.3
2017-11-15T01:25:02.954Z,7.2
2017-11-15T01:30:10.191Z,7.3
2017-11-15T01:35:08.148Z,7.3
2017-11-15T01:40:05.856Z,7.3
2017-11-15T01:45:20.872Z,7.3
2017-11-15T01:50:15.465Z,7.3
2017-11-15T01:55:08.381Z,7.3
2017-11-15T02:00:05.530Z,7.4
2017-11-15T02:05:05.045Z,7.4
2017-11-15T02:10:28.009Z,7.4
2017-11-15T02:15:07.782Z,7.3
2017-11-15T02:20:03.386Z,7.3
2017-11-15T02:25:02.894Z,7.3
2017-11-15T02:30:07.667Z,7.4
2017-11-15T02:35:23.246Z,7.3
2017-11-15T02:40:10.956Z,7.2
2017-11-15T02:45:28.544Z,7.3
2017-11-15T02:55:25.568Z,7.3
2017-11-15T03:00:06.002Z,7.4
2017-11-15T03:05:07.747Z,7.3
2017-11-15T03:10:18.154Z,7.3
2017-11-15T03:15:35.758Z,7.3
2017-11-15T03:20:10.200Z,7.3
2017-11-15T03:25:08.078Z,7.3
2017-11-15T03:30:07.980Z,7.4
2017-11-15T03:35:23.401Z,7.4
2017-11-15T03:45:08.266Z,7.4
2017-11-15T03:50:07.923Z,7.4
2017-11-15T03:55:07.419Z,7.4
2017-11-15T04:00:28.375Z,7.4
2017-11-15T04:05:10.229Z,7.5
2017-11-15T04:15:02.848Z,7.5
2017-11-15T04:20:02.592Z,7.5
2017-11-15T04:25:10.566Z,7.4
2017-11-15T04:30:15.375Z,7.4
2017-11-15T04:35:03.190Z,7.4
2017-11-15T04:40:08.465Z,7.4
2017-11-15T04:45:36.236Z,7.4
2017-11-15T04:50:03.011Z,7.4
2017-11-15T04:55:12.648Z,7.4
2017-11-15T05:00:03.273Z,7.4
2017-11-15T05:05:02.719Z,7.4
2017-11-15T05:10:02.923Z,7.5
2017-11-15T05:15:07.968Z,7.4
2017-11-15T05:20:02.539Z,7.4
2017-11-15T05:30:20.407Z,7.5
2017-11-15T05:35:03.197Z,7.5
2017-11-15T05:40:04.987Z,7.5
2017-11-15T05:45:32.767Z,7.5
2017-11-15T05:50:03.186Z,7.5
2017-11-15T05:55:17.789Z,7.5
2017-11-15T06:00:10.819Z,7.5
2017-11-15T06:05:20.453Z,7.5
2017-11-15T06:10:05.443Z,7.5
2017-11-15T06:15:10.651Z,7.5
2017-11-15T06:25:23.368Z,7.5
2017-11-15T06:30:02.831Z,7.5
2017-11-15T06:35:15.137Z,7.5
2017-11-15T06:40:08.356Z,7.6
2017-11-15T06:45:03.266Z,7.6
2017-11-15T06:50:08.051Z,7.7
2017-11-15T06:55:10.033Z,7.7
2017-11-15T07:05:02.619Z,7.8
2017-11-15T07:10:18.143Z,7.9
2017-11-15T07:15:28.103Z,8
2017-11-15T07:20:20.231Z,7.9
2017-11-15T07:25:10.649Z,8
2017-11-15T07:30:07.891Z,8
2017-11-15T07:35:28.645Z,8
2017-11-15T07:40:05.060Z,8
2017-11-15T07:45:07.551Z,8
2017-11-15T07:50:03.292Z,7.9
2017-11-15T07:55:10.399Z,8
2017-11-15T08:00:02.526Z,8
2017-11-15T08:05:03.055Z,8
2017-11-15T08:10:18.371Z,8.1
2017-11-15T08:15:08.352Z,8.2
2017-11-15T08:20:08.020Z,8.2
2017-11-15T08:25:05.079Z,8.2
2017-11-15T08:30:23.479Z,8.3
2017-11-15T08:35:05.392Z,8.3
2017-11-15T08:45:03.094Z,8.5
2017-11-15T08:50:13.005Z,8.6
2017-11-15T08:55:07.539Z,8.7
2017-11-15T09:00:10.849Z,8.7
2017-11-15T09:05:10.436Z,8.8
2017-11-15T09:10:05.623Z,8.8
2017-11-15T09:15:18.305Z,8.7
2017-11-15T09:20:05.437Z,8.8
2017-11-15T09:25:07.550Z,8.8
2017-11-15T09:30:20.946Z,8.9
2017-11-15T09:35:23.108Z,8.9
2017-11-15T09:40:20.882Z,8.9
2017-11-15T09:45:03.258Z,8.9
2017-11-15T09:50:05.553Z,9
2017-11-15T10:00:27.711Z,9
2017-11-15T10:05:10.637Z,9
2017-11-15T10:10:10.820Z,9.1
2017-11-15T10:15:08.355Z,9.2
2017-11-15T10:20:20.828Z,9.2
2017-11-15T10:25:05.196Z,9.2
2017-11-15T10:35:07.717Z,9.2
2017-11-15T10:40:03.303Z,9.2
2017-11-15T10:45:35.294Z,9.2
2017-11-15T10:50:08.317Z,9.2
2017-11-15T10:55:22.994Z,9.4
2017-11-15T11:00:20.231Z,9.4
2017-11-15T11:05:08.205Z,9.5
2017-11-15T11:10:02.474Z,9.4
2017-11-15T11:15:02.565Z,9.5
2017-11-15T11:20:15.966Z,9.6
2017-11-15T11:25:30.829Z,9.7
2017-11-15T11:30:20.472Z,3.3
2017-11-15T11:35:10.941Z,9.7
2017-11-15T11:45:20.494Z,9.8
2017-11-15T11:50:30.460Z,9.7
2017-11-15T11:55:20.904Z,9.8
2017-11-15T12:00:10.609Z,9.8
2017-11-15T12:05:15.237Z,9.8
2017-11-15T12:15:02.981Z,9.9
2017-11-15T12:20:02.806Z,10
2017-11-15T12:25:02.413Z,10.1
2017-11-15T12:30:05.816Z,9.9
2017-11-15T12:40:08.471Z,9.9
2017-11-15T12:45:04.932Z,9.8
2017-11-15T12:50:08.225Z,10
2017-11-15T12:55:17.980Z,9.9
2017-11-15T13:00:17.762Z,9.8
2017-11-15T13:05:08.254Z,10
2017-11-15T13:10:07.575Z,10
2017-11-15T13:15:05.148Z,10
2017-11-15T13:20:13.541Z,9.9
2017-11-15T13:25:35.839Z,9.8
2017-11-15T13:30:05.247Z,9.8
2017-11-15T13:35:02.368Z,9.8
2017-11-15T13:40:10.283Z,9.7
2017-11-15T13:45:20.587Z,9.8
2017-11-15T13:50:02.666Z,9.7
2017-11-15T13:55:23.515Z,9.7
2017-11-15T14:00:10.605Z,9.7
2017-11-15T14:05:22.908Z,9.7
2017-11-15T14:10:08.154Z,9.7
2017-11-15T14:15:08.138Z,9.7
2017-11-15T14:20:17.993Z,9.7
2017-11-15T14:25:10.097Z,9.6
2017-11-15T14:30:13.492Z,9.6
2017-11-15T14:35:18.140Z,9.6
2017-11-15T14:40:03.323Z,9.6
2017-11-15T14:45:10.014Z,9.6
2017-11-15T14:50:05.763Z,9.6
2017-11-15T14:55:05.434Z,9.5
2017-11-15T15:00:05.184Z,9.5
2017-11-15T15:10:22.770Z,9.5
2017-11-15T15:15:20.430Z,9.5
2017-11-15T15:20:27.762Z,9.5
2017-11-15T15:25:08.170Z,9.4
2017-11-15T15:30:38.273Z,9.4
2017-11-15T15:35:02.535Z,9.4
2017-11-15T15:40:02.884Z,9.4
2017-11-15T15:45:02.942Z,9.4
2017-11-15T15:50:05.195Z,9.4
2017-11-15T15:55:03.333Z,9.3
2017-11-15T16:00:25.839Z,9.4
2017-11-15T16:05:10.350Z,9.4
2017-11-15T16:10:05.662Z,9.3
2017-11-15T16:15:05.713Z,9.3
2017-11-15T16:25:25.428Z,9.3
2017-11-15T16:30:02.486Z,9.3
2017-11-15T16:35:38.456Z,9.3
2017-11-15T16:40:07.453Z,9.2
2017-11-15T16:45:05.026Z,9.2
2017-11-15T16:50:23.491Z,9.2
2017-11-15T16:55:07.909Z,9.2
2017-11-15T17:00:10.231Z,9.2
2017-11-15T17:05:18.399Z,9.1
2017-11-15T17:10:17.699Z,9.2
2017-11-15T17:15:15.247Z,9.2
2017-11-15T17:25:05.508Z,9.3
2017-11-15T17:30:05.402Z,9.3
2017-11-15T17:35:20.117Z,9.2
2017-11-15T17:40:02.710Z,9.2
2017-11-15T17:45:33.149Z,9.2
2017-11-15T17:50:02.575Z,9.2
2017-11-15T17:55:05.691Z,9.2
2017-11-15T18:00:25.758Z,9.2
2017-11-15T18:05:02.661Z,9.1
2017-11-15T18:10:08.037Z,9.1
2017-11-15T18:15:35.939Z,9.1
2017-11-15T18:20:10.431Z,9.1
2017-11-15T18:25:25.206Z,9.1
2017-11-15T18:30:15.892Z,9.1
2017-11-15T18:35:02.934Z,9.1
2017-11-15T18:40:03.283Z,9.1
2017-11-15T18:45:15.959Z,9.1
2017-11-15T18:50:05.587Z,9.1
2017-11-15T18:55:07.794Z,9.2
2017-11-15T19:05:10.755Z,9.1
2017-11-15T19:10:10.037Z,9.2
2017-11-15T19:15:02.583Z,9.2
2017-11-15T19:20:08.375Z,9.1
2017-11-15T19:25:05.379Z,9.1
2017-11-15T19:30:07.674Z,9.1
2017-11-15T19:35:05.757Z,9.2
2017-11-15T19:45:05.104Z,9.1
2017-11-15T19:50:26.058Z,9.1
2017-11-15T19:55:23.174Z,9.2
2017-11-15T20:00:15.398Z,9.2
2017-11-15T20:05:28.545Z,9.2
2017-11-15T20:15:05.174Z,9.2
2017-11-15T20:25:02.978Z,9.2
2017-11-15T20:30:02.675Z,9.2
2017-11-15T20:35:05.828Z,9.2
2017-11-15T20:40:02.671Z,9.2
2017-11-15T20:45:02.711Z,9.2
2017-11-15T20:50:17.619Z,9.2
2017-11-15T20:55:03.097Z,9.2
2017-11-15T21:00:05.446Z,9.2
2017-11-15T21:05:02.542Z,9.2
2017-11-15T21:10:05.483Z,9.2
2017-11-15T21:15:02.992Z,9.2
2017-11-15T21:20:35.618Z,9.2
2017-11-15T21:25:27.680Z,9.2
2017-11-15T21:35:38.246Z,9.2
2017-11-15T21:40:05.735Z,9.2
2017-11-15T21:45:05.847Z,9.2
2017-11-15T21:50:05.604Z,9.2
2017-11-15T22:05:30.977Z,9.2
2017-11-15T22:10:02.498Z,9.2
2017-11-15T22:15:05.220Z,9.2
2017-11-15T22:20:05.025Z,9.2
2017-11-15T22:25:13.289Z,9.2
2017-11-15T22:30:33.309Z,9.2
2017-11-15T22:40:07.552Z,9.1
2017-11-15T22:50:30.697Z,9.2
2017-11-15T22:55:05.036Z,9.2
2017-11-15T23:00:10.855Z,9.2
2017-11-15T23:05:15.551Z,9.2
2017-11-15T23:10:03.196Z,9.2
2017-11-15T23:20:05.652Z,9.3
2017-11-15T23:25:02.776Z,9.3
2017-11-15T23:30:22.799Z,9.3
2017-11-15T23:35:03.207Z,9.3
2017-11-15T23:40:05.311Z,9.2
2017-11-15T23:45:38.095Z,9.2
2017-11-15T23:50:10.114Z,9.2
2017-11-15T23:55:05.645Z,9.2
